createdAt,value
2019-02-14T00:01:50.513Z,26.27
2019-02-14T00:04:17.090Z,25.82
2019-02-14T00:06:43.751Z,25.57
2019-02-14T00:09:10.313Z,26.30
2019-02-14T00:11:37.197Z,24.35
2019-02-14T00:14:03.781Z,24.12
2019-02-14T00:16:30.320Z,27.60
2019-02-14T00:18:56.884Z,29.90
2019-02-14T00:21:23.401Z,30.70
2019-02-14T00:23:49.996Z,29.70
2019-02-14T00:26:16.584Z,30.95
2019-02-14T00:28:43.115Z,32.33
2019-02-14T00:31:09.653Z,31.15
2019-02-14T00:33:36.205Z,29.87
2019-02-14T00:36:02.733Z,27.10
2019-02-14T00:38:29.281Z,23.55
2019-02-14T00:40:55.867Z,26.45
2019-02-14T00:43:22.397Z,25.90
2019-02-14T00:45:48.986Z,25.12
2019-02-14T00:48:15.546Z,28.42
2019-02-14T00:50:42.111Z,35.40
2019-02-14T00:53:08.675Z,36.93
2019-02-14T00:55:35.264Z,34.27
2019-02-14T00:58:01.794Z,32.45
2019-02-14T01:00:28.346Z,27.52
2019-02-14T01:02:55.005Z,29.02
2019-02-14T01:05:21.662Z,30.12
2019-02-14T01:07:48.220Z,25.00
2019-02-14T01:10:14.781Z,21.37
2019-02-14T01:12:41.297Z,27.87
2019-02-14T01:15:09.042Z,28.38
2019-02-14T01:17:35.756Z,23.52
2019-02-14T01:20:03.301Z,35.43
2019-02-14T01:22:29.942Z,34.95
2019-02-14T01:24:56.497Z,38.90
2019-02-14T01:27:23.029Z,30.82
2019-02-14T01:29:49.650Z,27.58
2019-02-14T01:32:16.211Z,28.62
2019-02-14T01:34:42.749Z,34.45
2019-02-14T01:37:09.267Z,32.20
2019-02-14T01:39:35.824Z,28.40
2019-02-14T01:42:02.623Z,18.52
2019-02-14T01:44:29.170Z,25.02
2019-02-14T01:46:55.743Z,24.95
2019-02-14T01:49:22.306Z,26.00
2019-02-14T01:51:48.945Z,31.60
2019-02-14T01:54:15.517Z,30.85
2019-02-14T01:56:42.044Z,30.97
2019-02-14T01:59:08.602Z,28.80
2019-02-14T02:01:35.165Z,34.55
2019-02-14T02:04:01.706Z,29.50
2019-02-14T02:06:28.241Z,31.48
2019-02-14T02:08:54.808Z,34.08
2019-02-14T02:11:21.329Z,32.15
2019-02-14T02:13:47.882Z,29.00
2019-02-14T02:16:14.524Z,27.87
2019-02-14T02:18:41.066Z,24.72
2019-02-14T02:21:07.638Z,24.85
2019-02-14T02:23:34.202Z,26.48
2019-02-14T02:26:00.885Z,26.68
2019-02-14T02:28:27.450Z,27.82
2019-02-14T02:30:54.012Z,31.23
2019-02-14T02:33:20.545Z,30.52
2019-02-14T02:35:47.095Z,33.15
2019-02-14T02:38:13.644Z,33.25
2019-02-14T02:40:40.210Z,33.02
2019-02-14T02:43:06.859Z,27.13
2019-02-14T02:45:33.440Z,31.57
2019-02-14T02:47:59.969Z,37.42
2019-02-14T02:50:26.503Z,31.40
2019-02-14T02:52:53.083Z,30.08
2019-02-14T02:55:19.601Z,26.90
2019-02-14T02:57:46.740Z,37.45
2019-02-14T03:00:15.505Z,36.25
2019-02-14T03:02:42.043Z,32.30
2019-02-14T03:05:10.398Z,46.00
2019-02-14T03:07:37.073Z,35.52
2019-02-14T03:10:07.301Z,35.23
2019-02-14T03:12:35.048Z,36.40
2019-02-14T03:15:01.584Z,37.65
2019-02-14T03:17:28.234Z,45.80
2019-02-14T03:19:54.762Z,44.42
2019-02-14T03:22:21.316Z,51.20
2019-02-14T03:24:47.911Z,43.38
2019-02-14T03:27:14.473Z,40.33
2019-02-14T03:29:41.050Z,29.92
2019-02-14T03:32:07.583Z,35.63
2019-02-14T03:34:34.189Z,34.48
2019-02-14T03:37:00.743Z,30.27
2019-02-14T03:39:27.267Z,31.05
2019-02-14T03:41:53.834Z,34.00
2019-02-14T03:44:20.427Z,30.02
2019-02-14T03:46:48.162Z,28.32
2019-02-14T03:49:14.691Z,28.47
2019-02-14T03:51:41.251Z,28.60
2019-02-14T03:54:07.799Z,27.90
2019-02-14T03:56:34.401Z,34.53
2019-02-14T03:59:00.936Z,34.00
2019-02-14T04:01:27.482Z,33.05
2019-02-14T04:03:54.023Z,39.18
2019-02-14T04:06:27.303Z,38.25
2019-02-14T04:08:48.950Z,35.03
2019-02-14T04:11:15.526Z,35.30
2019-02-14T04:13:42.106Z,39.95
2019-02-14T04:16:08.635Z,35.13
2019-02-14T04:18:35.195Z,37.10
2019-02-14T04:21:01.731Z,34.63
2019-02-14T04:23:28.383Z,33.55
2019-02-14T04:25:54.921Z,39.27
2019-02-14T04:28:21.504Z,36.28
2019-02-14T04:30:48.111Z,38.85
2019-02-14T04:33:14.871Z,45.08
2019-02-14T04:35:41.409Z,41.60
2019-02-14T04:38:07.991Z,36.45
2019-02-14T04:40:34.546Z,47.55
2019-02-14T04:43:01.094Z,50.05
2019-02-14T04:45:27.627Z,50.25
2019-02-14T04:47:54.186Z,40.17
2019-02-14T04:50:20.736Z,35.98
2019-02-14T04:52:47.270Z,35.33
2019-02-14T04:55:13.806Z,34.43
2019-02-14T04:57:40.366Z,38.67
2019-02-14T05:00:09.972Z,35.85
2019-02-14T05:02:36.523Z,34.13
2019-02-14T05:05:04.785Z,33.88
2019-02-14T05:07:31.323Z,33.42
2019-02-14T05:09:57.863Z,34.43
2019-02-14T05:12:26.164Z,35.45
2019-02-14T05:14:52.797Z,34.30
2019-02-14T05:17:19.362Z,34.83
2019-02-14T05:19:45.927Z,41.42
2019-02-14T05:22:12.451Z,31.10
2019-02-14T05:24:39.009Z,34.13
2019-02-14T05:27:05.543Z,32.33
2019-02-14T05:29:32.072Z,29.25
2019-02-14T05:31:58.646Z,38.42
2019-02-14T05:34:25.187Z,33.45
2019-02-14T05:36:54.677Z,37.73
2019-02-14T05:39:20.077Z,33.33
2019-02-14T05:41:46.633Z,36.60
2019-02-14T05:44:13.179Z,42.48
2019-02-14T05:46:39.772Z,37.95
2019-02-14T05:49:06.335Z,38.00
2019-02-14T05:51:32.871Z,35.08
2019-02-14T05:53:59.426Z,35.08
2019-02-14T05:56:25.970Z,34.27
2019-02-14T05:58:52.530Z,44.58
2019-02-14T06:01:19.770Z,39.75
2019-02-14T06:03:47.449Z,34.90
2019-02-14T06:06:13.992Z,36.30
2019-02-14T06:08:40.544Z,39.25
2019-02-14T06:11:07.110Z,35.52
2019-02-14T06:13:33.643Z,38.53
2019-02-14T06:16:00.195Z,37.78
2019-02-14T06:18:26.740Z,35.70
2019-02-14T06:20:53.309Z,33.88
2019-02-14T06:23:19.974Z,40.52
2019-02-14T06:25:46.539Z,45.75
2019-02-14T06:28:13.077Z,54.10
2019-02-14T06:30:39.648Z,47.60
2019-02-14T06:33:06.195Z,44.85
2019-02-14T06:35:32.807Z,36.25
2019-02-14T06:37:59.385Z,45.85
2019-02-14T06:40:25.940Z,39.98
2019-02-14T06:42:52.520Z,37.42
2019-02-14T06:45:19.095Z,41.23
2019-02-14T06:47:45.704Z,45.08
2019-02-14T06:50:12.275Z,52.03
2019-02-14T06:52:40.399Z,66.53
2019-02-14T06:55:07.197Z,64.45
2019-02-14T06:57:33.721Z,57.10
2019-02-14T07:00:00.294Z,54.33
2019-02-14T07:02:26.819Z,46.00
2019-02-14T07:04:53.354Z,79.05
2019-02-14T07:07:19.954Z,50.67
2019-02-14T07:09:46.506Z,48.58
2019-02-14T07:12:13.029Z,44.53
2019-02-14T07:14:39.581Z,45.00
2019-02-14T07:17:06.136Z,39.48
2019-02-14T07:19:32.712Z,39.25
2019-02-14T07:22:00.373Z,38.33
2019-02-14T07:24:26.931Z,38.38
2019-02-14T07:26:53.474Z,39.98
2019-02-14T07:29:20.028Z,46.77
2019-02-14T07:31:46.569Z,42.40
2019-02-14T07:34:13.146Z,42.33
2019-02-14T07:36:39.684Z,42.83
2019-02-14T07:39:06.270Z,39.42
2019-02-14T07:41:32.789Z,40.38
2019-02-14T07:43:59.333Z,33.63
2019-02-14T07:46:25.870Z,37.75
2019-02-14T07:48:52.465Z,40.78
2019-02-14T07:51:19.032Z,39.65
2019-02-14T07:53:45.585Z,37.60
2019-02-14T07:56:12.116Z,37.85
2019-02-14T07:58:38.670Z,44.48
2019-02-14T08:01:05.227Z,48.83
2019-02-14T08:03:31.794Z,46.05
2019-02-14T08:05:58.366Z,218.37
2019-02-14T08:08:24.922Z,215.62
2019-02-14T08:10:51.582Z,60.92
2019-02-14T08:13:18.114Z,43.90
2019-02-14T08:15:44.773Z,62.08
2019-02-14T08:18:11.389Z,74.30
2019-02-14T08:20:37.937Z,66.02
2019-02-14T08:23:04.517Z,59.20
2019-02-14T08:25:31.076Z,98.70
2019-02-14T08:27:57.618Z,179.47
2019-02-14T08:30:24.171Z,156.35
2019-02-14T08:32:50.708Z,60.00
2019-02-14T08:35:17.277Z,64.47
2019-02-14T08:37:45.871Z,57.40
2019-02-14T08:40:16.277Z,67.08
2019-02-14T08:42:42.872Z,55.85
2019-02-14T08:45:10.824Z,62.35
2019-02-14T08:47:37.584Z,48.85
2019-02-14T08:50:06.494Z,46.55
2019-02-14T08:52:33.154Z,46.42
2019-02-14T08:54:59.680Z,47.53
2019-02-14T08:57:26.229Z,43.08
2019-02-14T08:59:52.789Z,49.40
2019-02-14T09:02:19.361Z,39.60
2019-02-14T09:04:45.931Z,43.33
2019-02-14T09:07:12.496Z,50.83
2019-02-14T09:09:39.020Z,39.92
2019-02-14T09:12:05.582Z,44.08
2019-02-14T09:14:32.152Z,39.50
2019-02-14T09:16:58.686Z,44.55
2019-02-14T09:19:25.229Z,38.35
2019-02-14T09:21:51.781Z,37.85
2019-02-14T09:24:18.296Z,37.40
2019-02-14T09:26:44.840Z,37.95
2019-02-14T09:29:13.743Z,44.70
2019-02-14T09:31:39.695Z,38.33
2019-02-14T09:34:06.239Z,33.88
2019-02-14T09:36:34.389Z,34.53
2019-02-14T09:39:01.140Z,34.23
2019-02-14T09:41:29.283Z,34.27
2019-02-14T09:43:55.845Z,33.10
2019-02-14T09:46:22.509Z,32.58
2019-02-14T09:48:49.052Z,30.35
2019-02-14T09:51:15.671Z,33.67
2019-02-14T09:53:42.247Z,35.68
2019-02-14T09:56:08.852Z,34.23
2019-02-14T09:58:35.414Z,30.17
2019-02-14T10:01:03.165Z,35.92
2019-02-14T10:03:29.712Z,33.90
2019-02-14T10:05:56.268Z,38.45
2019-02-14T10:08:22.828Z,36.05
2019-02-14T10:10:49.409Z,37.35
2019-02-14T10:13:15.972Z,36.13
2019-02-14T10:15:42.604Z,40.30
2019-02-14T10:18:09.221Z,38.70
2019-02-14T10:20:35.767Z,40.15
2019-02-14T10:23:02.335Z,39.23
2019-02-14T10:25:28.891Z,41.37
2019-02-14T10:27:55.469Z,37.83
2019-02-14T10:30:22.792Z,39.27
2019-02-14T10:32:49.363Z,37.15
2019-02-14T10:35:17.107Z,37.35
2019-02-14T10:37:43.681Z,37.38
2019-02-14T10:40:12.351Z,33.88
2019-02-14T10:42:40.622Z,36.83
2019-02-14T10:45:21.549Z,36.48
2019-02-14T10:47:48.114Z,31.73
2019-02-14T10:50:14.702Z,36.15
2019-02-14T10:52:42.235Z,32.42
2019-02-14T10:55:10.287Z,31.45
2019-02-14T10:57:36.818Z,35.35
2019-02-14T11:00:22.230Z,28.52
2019-02-14T11:02:48.858Z,32.20
2019-02-14T11:05:16.434Z,29.63
2019-02-14T11:07:42.969Z,36.42
2019-02-14T11:10:12.306Z,28.30
2019-02-14T11:12:38.956Z,28.10
2019-02-14T11:15:09.202Z,25.23
2019-02-14T11:17:35.864Z,22.55
2019-02-14T11:20:04.214Z,29.63
2019-02-14T11:22:30.806Z,23.22
2019-02-14T11:24:59.212Z,23.90
2019-02-14T11:27:25.697Z,24.75
2019-02-14T11:29:52.237Z,25.77
2019-02-14T11:32:18.773Z,24.10
2019-02-14T11:34:45.329Z,32.42
2019-02-14T11:37:11.862Z,19.60
2019-02-14T11:39:38.426Z,23.47
2019-02-14T11:42:04.981Z,18.98
2019-02-14T11:44:39.594Z,19.20
2019-02-14T11:46:59.868Z,18.65
2019-02-14T11:49:26.408Z,17.52
2019-02-14T11:51:52.961Z,18.82
2019-02-14T11:54:19.585Z,21.37
2019-02-14T11:56:46.146Z,21.45
2019-02-14T11:59:13.799Z,18.30
2019-02-14T12:01:40.316Z,19.25
2019-02-14T12:04:06.875Z,15.28
2019-02-14T12:06:33.447Z,19.25
2019-02-14T12:09:00.652Z,16.70
2019-02-14T12:11:27.664Z,18.27
2019-02-14T12:13:54.219Z,16.50
2019-02-14T12:16:20.765Z,19.42
2019-02-14T12:18:47.318Z,15.10
2019-02-14T12:21:13.864Z,15.75
2019-02-14T12:23:40.402Z,16.95
2019-02-14T12:26:06.976Z,16.45
2019-02-14T12:28:33.532Z,14.90
2019-02-14T12:31:00.064Z,16.67
2019-02-14T12:33:26.608Z,19.12
2019-02-14T12:35:53.169Z,14.25
2019-02-14T12:38:19.764Z,14.68
2019-02-14T12:40:46.351Z,14.85
2019-02-14T12:43:12.993Z,13.45
2019-02-14T12:45:39.541Z,13.40
2019-02-14T12:48:06.077Z,16.27
2019-02-14T12:50:32.658Z,13.62
2019-02-14T12:52:59.186Z,14.40
2019-02-14T12:55:25.863Z,15.25
2019-02-14T12:57:52.438Z,15.48
2019-02-14T13:00:21.915Z,14.80
2019-02-14T13:02:48.428Z,13.95
2019-02-14T13:05:14.972Z,17.98
2019-02-14T13:07:41.522Z,14.35
2019-02-14T13:10:10.456Z,13.93
2019-02-14T13:12:37.111Z,15.50
2019-02-14T13:15:07.480Z,15.53
2019-02-14T13:17:34.047Z,14.70
2019-02-14T13:20:00.614Z,12.85
2019-02-14T13:22:27.140Z,20.10
2019-02-14T13:24:53.709Z,13.25
2019-02-14T13:27:20.255Z,14.00
2019-02-14T13:29:46.861Z,16.82
2019-02-14T13:32:13.756Z,15.20
2019-02-14T13:34:40.511Z,16.40
2019-02-14T13:37:07.056Z,15.15
2019-02-14T13:39:33.633Z,14.23
2019-02-14T13:42:00.162Z,15.32
2019-02-14T13:44:26.742Z,17.98
2019-02-14T13:46:53.292Z,14.53
2019-02-14T13:49:19.868Z,12.80
2019-02-14T13:51:46.397Z,17.98
2019-02-14T13:54:12.943Z,15.68
2019-02-14T13:56:39.526Z,13.05
2019-02-14T13:59:07.087Z,13.85
2019-02-14T14:01:33.669Z,17.45
2019-02-14T14:04:00.234Z,13.85
2019-02-14T14:06:26.802Z,12.35
2019-02-14T14:08:53.320Z,13.48
2019-02-14T14:11:19.886Z,12.23
2019-02-14T14:13:46.398Z,13.30
2019-02-14T14:16:12.947Z,12.58
2019-02-14T14:18:39.505Z,13.30
2019-02-14T14:21:06.036Z,13.25
2019-02-14T14:23:32.592Z,12.30
2019-02-14T14:25:59.151Z,12.40
2019-02-14T14:28:25.699Z,14.15
2019-02-14T14:30:52.559Z,15.15
2019-02-14T14:33:19.364Z,11.28
2019-02-14T14:35:45.914Z,13.48
2019-02-14T14:38:13.686Z,13.60
2019-02-14T14:40:40.245Z,23.20
2019-02-14T14:43:15.617Z,17.45
2019-02-14T14:45:44.071Z,25.50
2019-02-14T14:48:19.271Z,25.55
2019-02-14T14:50:41.965Z,25.08
2019-02-14T14:53:08.519Z,33.13
2019-02-14T14:55:35.091Z,34.48
2019-02-14T14:58:02.319Z,24.85
2019-02-14T15:00:28.910Z,16.85
2019-02-14T15:02:55.442Z,24.82
2019-02-14T15:05:22.036Z,34.25
2019-02-14T15:07:48.630Z,38.92
2019-02-14T15:10:15.183Z,43.13
2019-02-14T15:12:41.755Z,44.03
2019-02-14T15:15:08.317Z,36.77
2019-02-14T15:17:34.956Z,79.70
2019-02-14T15:20:01.625Z,99.15
2019-02-14T15:22:28.263Z,371.80
2019-02-14T15:24:54.843Z,267.87
2019-02-14T15:27:21.418Z,273.02
2019-02-14T15:29:47.978Z,341.33
2019-02-14T15:34:44.110Z,438.20
2019-02-14T15:37:12.629Z,419.25
2019-02-14T15:39:47.204Z,415.90
2019-02-14T15:42:13.767Z,401.30
2019-02-14T15:44:40.306Z,343.97
2019-02-14T15:47:06.874Z,177.72
2019-02-14T15:49:33.432Z,61.55
2019-02-14T15:52:00.003Z,103.40
2019-02-14T15:54:26.577Z,158.20
2019-02-14T15:56:53.654Z,63.68
2019-02-14T15:59:21.509Z,62.58
2019-02-14T16:01:48.142Z,111.70
2019-02-14T16:04:14.814Z,113.03
2019-02-14T16:06:41.344Z,59.50
2019-02-14T16:09:07.930Z,76.70
2019-02-14T16:11:36.449Z,63.20
2019-02-14T16:14:02.991Z,65.45
2019-02-14T16:16:29.526Z,48.23
2019-02-14T16:18:56.091Z,66.10
2019-02-14T16:21:22.627Z,82.53
2019-02-14T16:23:50.960Z,71.15
2019-02-14T16:26:17.701Z,60.85
2019-02-14T16:28:44.258Z,43.33
2019-02-14T16:31:10.817Z,38.90
2019-02-14T16:33:37.496Z,42.85
2019-02-14T16:36:04.083Z,48.63
2019-02-14T16:38:30.738Z,48.02
2019-02-14T16:40:57.352Z,50.55
2019-02-14T16:43:23.898Z,44.13
2019-02-14T16:45:50.750Z,27.98
2019-02-14T16:48:17.314Z,85.47
2019-02-14T16:50:43.914Z,35.75
2019-02-14T16:53:10.454Z,57.20
2019-02-14T16:55:37.027Z,51.58
2019-02-14T16:58:03.548Z,40.45
2019-02-14T17:00:30.158Z,43.75
2019-02-14T17:02:56.714Z,35.48
2019-02-14T17:05:23.237Z,60.73
2019-02-14T17:07:49.816Z,92.55
2019-02-14T17:10:16.354Z,83.50
2019-02-14T17:12:42.938Z,68.28
2019-02-14T17:15:09.505Z,76.07
2019-02-14T17:17:36.076Z,49.42
2019-02-14T17:20:07.245Z,56.15
2019-02-14T17:22:33.989Z,37.78
2019-02-14T17:25:00.563Z,54.10
2019-02-14T17:27:27.148Z,60.90
2019-02-14T17:29:53.702Z,54.23
2019-02-14T17:32:20.280Z,44.73
2019-02-14T17:34:46.830Z,55.67
2019-02-14T17:37:13.400Z,55.55
2019-02-14T17:39:39.974Z,42.23
2019-02-14T17:42:06.515Z,53.35
2019-02-14T17:44:33.101Z,33.95
2019-02-14T17:46:59.644Z,33.88
2019-02-14T17:49:26.227Z,54.60
2019-02-14T17:51:52.876Z,43.52
2019-02-14T17:54:19.442Z,60.33
2019-02-14T17:56:46.001Z,52.33
2019-02-14T17:59:12.564Z,48.13
2019-02-14T18:01:39.165Z,50.20
2019-02-14T18:04:05.719Z,51.65
2019-02-14T18:06:32.386Z,56.05
2019-02-14T18:08:59.033Z,48.83
2019-02-14T18:11:25.592Z,58.33
2019-02-14T18:13:52.178Z,62.88
2019-02-14T18:16:18.769Z,71.53
2019-02-14T18:18:45.347Z,73.72
2019-02-14T18:21:11.925Z,51.85
2019-02-14T18:23:38.627Z,35.90
2019-02-14T18:26:05.287Z,39.92
2019-02-14T18:28:32.076Z,53.55
2019-02-14T18:30:58.633Z,69.15
2019-02-14T18:33:25.318Z,76.00
2019-02-14T18:35:51.926Z,62.15
2019-02-14T18:38:18.575Z,55.92
2019-02-14T18:40:45.116Z,72.03
2019-02-14T18:43:11.695Z,72.37
2019-02-14T18:45:38.281Z,70.32
2019-02-14T18:48:05.018Z,70.17
2019-02-14T18:50:32.706Z,50.98
2019-02-14T18:52:59.356Z,56.02
2019-02-14T18:55:25.939Z,61.18
2019-02-14T18:57:52.473Z,68.87
2019-02-14T19:00:19.642Z,73.92
2019-02-14T19:02:46.490Z,75.15
2019-02-14T19:05:13.246Z,84.22
2019-02-14T19:07:39.947Z,81.87
2019-02-14T19:10:15.882Z,83.95
2019-02-14T19:12:44.781Z,74.70
2019-02-14T19:15:12.636Z,70.42
2019-02-14T19:17:39.294Z,130.05
2019-02-14T19:20:08.393Z,148.80
2019-02-14T19:22:35.082Z,130.40
2019-02-14T19:25:01.774Z,122.30
2019-02-14T19:27:29.637Z,84.00
2019-02-14T19:29:56.303Z,63.40
2019-02-14T19:32:22.833Z,76.33
2019-02-14T19:34:49.402Z,69.35
2019-02-14T19:37:15.951Z,78.50
2019-02-14T19:39:42.578Z,73.25
2019-02-14T19:42:09.246Z,56.77
2019-02-14T19:44:35.818Z,57.75
2019-02-14T19:47:02.474Z,63.55
2019-02-14T19:49:29.118Z,74.60
2019-02-14T19:51:55.757Z,62.70
2019-02-14T19:54:22.439Z,75.37
2019-02-14T19:56:49.143Z,78.12
2019-02-14T19:59:15.669Z,86.05
2019-02-14T20:01:42.226Z,89.28
2019-02-14T20:04:08.844Z,135.22
2019-02-14T20:06:35.530Z,119.93
2019-02-14T20:09:02.352Z,95.12
2019-02-14T20:11:36.541Z,88.07
2019-02-14T20:13:59.186Z,87.47
2019-02-14T20:16:25.767Z,85.35
2019-02-14T20:18:52.370Z,91.32
2019-02-14T20:21:18.975Z,93.10
2019-02-14T20:23:45.574Z,88.03
2019-02-14T20:26:14.058Z,75.35
2019-02-14T20:28:40.644Z,79.47
2019-02-14T20:31:07.209Z,59.15
2019-02-14T20:33:33.783Z,38.23
2019-02-14T20:36:00.337Z,49.55
2019-02-14T21:09:38.489Z,59.18
2019-02-14T21:26:15.761Z,52.05
2019-02-14T21:28:42.343Z,47.03
2019-02-14T21:37:30.941Z,21.25
2019-02-14T21:39:59.498Z,40.83
2019-02-14T21:42:29.379Z,47.33
2019-02-14T21:44:54.896Z,70.47
2019-02-14T21:47:21.557Z,86.02
2019-02-14T21:49:48.218Z,85.00
2019-02-14T21:52:15.899Z,74.25
2019-02-14T21:54:42.438Z,72.40
2019-02-14T21:57:09.012Z,77.45
2019-02-14T21:59:35.671Z,77.53
2019-02-14T22:02:06.086Z,94.25
2019-02-14T22:04:31.976Z,81.05
2019-02-14T22:06:58.679Z,87.78
2019-02-14T22:09:25.306Z,54.27
2019-02-14T22:11:51.860Z,55.85
2019-02-14T22:14:18.464Z,53.92
2019-02-14T22:16:45.025Z,37.17
2019-02-14T22:19:11.571Z,43.40
2019-02-14T22:21:38.141Z,47.50
2019-02-14T22:24:04.706Z,47.50
2019-02-14T22:26:31.267Z,50.60
2019-02-14T22:28:57.827Z,48.87
2019-02-14T22:31:24.363Z,40.88
2019-02-14T22:33:51.013Z,26.25
2019-02-14T22:36:17.590Z,24.43
2019-02-14T22:38:44.146Z,22.62
2019-02-14T22:41:10.696Z,23.73
2019-02-14T22:43:37.283Z,40.40
2019-02-14T22:46:03.868Z,71.30
2019-02-14T22:48:30.432Z,90.90
2019-02-14T22:50:56.999Z,77.30
2019-02-14T22:53:23.548Z,140.20
2019-02-14T22:55:50.095Z,85.32
2019-02-14T22:58:16.657Z,68.07
2019-02-14T23:00:46.845Z,62.05
2019-02-14T23:03:14.217Z,50.88
2019-02-14T23:05:40.893Z,37.88
2019-02-14T23:08:07.430Z,37.42
2019-02-14T23:10:33.981Z,48.92
2019-02-14T23:13:00.630Z,65.57
2019-02-14T23:15:27.165Z,52.25
2019-02-14T23:17:54.844Z,52.23
2019-02-14T23:20:21.409Z,38.90
2019-02-14T23:22:47.975Z,42.20
2019-02-14T23:25:14.547Z,56.58
2019-02-14T23:27:41.104Z,41.00
2019-02-14T23:30:11.154Z,45.40
2019-02-14T23:32:37.712Z,38.53
2019-02-14T23:35:04.248Z,43.90
2019-02-14T23:37:30.823Z,36.73
2019-02-14T23:39:57.423Z,30.37
2019-02-14T23:42:24.088Z,28.07
2019-02-14T23:44:51.613Z,24.37
2019-02-14T23:47:18.160Z,27.95
2019-02-14T23:49:44.730Z,39.25
2019-02-14T23:52:11.269Z,52.33
2019-02-14T23:54:37.807Z,55.67
2019-02-14T23:57:04.344Z,51.90
2019-02-14T23:59:30.882Z,46.77
